Aurora, New York
Current Conditions -  °F | °C
As of 9:53 PM on Friday 19 Dec 2014 (Local Time) from KPEO Reporting Station
Overcast Overcast  
Wind Chill: 22°   Ceiling: 2100
Heat Index: 28°   Visibility: 10mi
Dew Point: 21°   Wind: 6mph
Humidity: 75%   Direction: 300°WNW
Pressure: 30.22"   Gusts: NA
Location:  42.75°N, 76.7°W
Report Text: KPEO 200253Z AUTO 30005KT 10SM OVC021 M02/M06 A3022 RMK AO2 SLP246 T10221061 53003
Loading
Personal Weather Stations






























Interactive Weather Map New forecast layout! Learn more

10-Day Weather Forecast

Advertisements
Track Severe Weather on mobile